createdAt,value
2018-12-06T00:00:05.686Z,101683.73
2018-12-06T00:02:33.363Z,101680.92
2018-12-06T00:05:01.112Z,101677.30
2018-12-06T00:07:28.976Z,101677.48
2018-12-06T00:09:56.632Z,101674.58
2018-12-06T00:12:24.430Z,101664.42
2018-12-06T00:14:56.111Z,101669.83
2018-12-06T00:17:23.859Z,101666.60
2018-12-06T00:19:51.701Z,101662.67
2018-12-06T00:22:20.052Z,101662.36
2018-12-06T00:24:47.947Z,101665.84
2018-12-06T00:27:15.639Z,101656.11
2018-12-06T00:29:47.456Z,101656.56
2018-12-06T00:32:15.619Z,101652.89
2018-12-06T00:34:43.239Z,101644.45
2018-12-06T00:37:10.939Z,101650.55
2018-12-06T00:39:38.607Z,101649.48
2018-12-06T00:42:06.544Z,101643.92
2018-12-06T00:44:34.104Z,101647.23
2018-12-06T00:47:01.941Z,101653.61
2018-12-06T00:49:29.640Z,101643.11
2018-12-06T00:51:57.940Z,101654.69
2018-12-06T00:54:25.573Z,101650.76
2018-12-06T00:56:53.468Z,101652.09
2018-12-06T00:59:21.125Z,101648.19
2018-12-06T01:01:48.747Z,101648.45
2018-12-06T01:04:16.443Z,101644.64
2018-12-06T01:06:44.048Z,101639.95
2018-12-06T01:09:11.740Z,101636.08
2018-12-06T01:11:39.293Z,101633.53
2018-12-06T01:14:07.083Z,101637.16
2018-12-06T01:16:34.740Z,101637.71
2018-12-06T01:19:02.352Z,101638.13
2018-12-06T01:21:30.048Z,101639.56
2018-12-06T01:23:57.703Z,101631.43
2018-12-06T01:26:25.383Z,101623.83
2018-12-06T01:28:53.271Z,101623.68
2018-12-06T01:31:21.134Z,101622.50
2018-12-06T01:33:49.478Z,101617.14
2018-12-06T01:36:17.276Z,101615.77
2018-12-06T01:38:44.891Z,101621.18
2018-12-06T01:41:12.599Z,101620.66
2018-12-06T01:43:40.488Z,101604.55
2018-12-06T01:46:08.260Z,101600.57
2018-12-06T01:48:36.035Z,101604.94
2018-12-06T01:51:03.760Z,101597.77
2018-12-06T01:53:31.407Z,101602.89
2018-12-06T01:55:59.252Z,101597.86
2018-12-06T01:58:26.911Z,101602.58
2018-12-06T02:00:54.935Z,101595.78
2018-12-06T02:03:23.400Z,101593.91
2018-12-06T02:05:51.109Z,101587.56
2018-12-06T02:08:19.134Z,101589.33
2018-12-06T02:10:46.790Z,101585.03
2018-12-06T02:13:14.552Z,101582.77
2018-12-06T02:15:42.268Z,101579.75
2018-12-06T02:18:09.928Z,101577.55
2018-12-06T02:20:37.607Z,101576.19
2018-12-06T02:23:05.320Z,101583.58
2018-12-06T02:25:33.145Z,101579.38
2018-12-06T02:28:01.672Z,101580.35
2018-12-06T02:30:29.522Z,101574.31
2018-12-06T02:32:57.136Z,101572.00
2018-12-06T02:35:25.261Z,101567.10
2018-12-06T02:37:52.849Z,101559.30
2018-12-06T02:40:20.590Z,101549.61
2018-12-06T02:42:48.120Z,101547.53
2018-12-06T02:45:15.846Z,101539.00
2018-12-06T02:47:44.557Z,101534.03
2018-12-06T02:50:12.243Z,101521.27
2018-12-06T02:52:39.913Z,101514.47
2018-12-06T02:55:07.605Z,101505.75
2018-12-06T02:57:35.784Z,101505.38
2018-12-06T03:00:03.607Z,101494.61
2018-12-06T03:02:31.582Z,101480.98
2018-12-06T03:04:59.212Z,101481.64
2018-12-06T03:07:27.120Z,101478.55
2018-12-06T03:09:54.888Z,101467.94
2018-12-06T03:12:22.444Z,101463.91
2018-12-06T03:14:50.324Z,101457.11
2018-12-06T03:17:17.962Z,101448.33
2018-12-06T03:19:47.741Z,101445.03
2018-12-06T03:22:16.219Z,101438.08
2018-12-06T03:24:44.019Z,101434.46
2018-12-06T03:27:11.563Z,101430.86
2018-12-06T03:29:39.346Z,101422.36
2018-12-06T03:32:07.229Z,101420.34
2018-12-06T03:34:35.043Z,101422.38
2018-12-06T03:37:02.738Z,101416.97
2018-12-06T03:39:30.583Z,101409.89
2018-12-06T03:41:58.267Z,101404.48
2018-12-06T03:44:25.961Z,101398.70
2018-12-06T03:46:53.796Z,101386.61
2018-12-06T03:49:21.408Z,101379.06
2018-12-06T03:51:49.179Z,101368.76
2018-12-06T03:54:17.200Z,101365.16
2018-12-06T03:56:44.855Z,101366.77
2018-12-06T03:59:12.942Z,101361.64
2018-12-06T04:01:41.073Z,101356.45
2018-12-06T04:04:08.807Z,101361.80
2018-12-06T04:06:36.911Z,101355.61
2018-12-06T04:09:06.579Z,101354.03
2018-12-06T04:11:34.310Z,101348.45
2018-12-06T04:14:01.969Z,101342.67
2018-12-06T04:16:29.586Z,101338.90
2018-12-06T04:18:57.448Z,101327.45
2018-12-06T04:21:25.209Z,101328.53
2018-12-06T04:23:52.822Z,101321.29
2018-12-06T04:26:21.311Z,101320.17
2018-12-06T04:28:48.963Z,101318.05
2018-12-06T04:31:16.689Z,101316.16
2018-12-06T04:33:44.931Z,101307.58
2018-12-06T04:36:12.559Z,101311.25
2018-12-06T04:38:40.186Z,101309.69
2018-12-06T04:41:07.836Z,101312.89
2018-12-06T04:43:36.160Z,101297.77
2018-12-06T04:46:03.790Z,101297.29
2018-12-06T04:48:31.588Z,101290.38
2018-12-06T04:50:59.345Z,101292.17
2018-12-06T04:53:27.300Z,101262.31
2018-12-06T04:55:55.487Z,101286.23
2018-12-06T04:58:23.896Z,101283.88
2018-12-06T05:00:51.600Z,101285.78
2018-12-06T05:03:19.765Z,101284.34
2018-12-06T05:05:47.571Z,101288.91
2018-12-06T05:08:15.176Z,101287.55
2018-12-06T05:10:42.891Z,101292.09
2018-12-06T05:13:10.543Z,101286.84
2018-12-06T05:15:38.183Z,101284.17
2018-12-06T05:18:06.160Z,101285.92
2018-12-06T05:20:33.927Z,101281.37
2018-12-06T05:23:01.788Z,101277.61
2018-12-06T05:25:29.485Z,101282.13
2018-12-06T05:27:57.318Z,101280.02
2018-12-06T05:30:24.976Z,101278.49
2018-12-06T05:32:52.838Z,101277.75
2018-12-06T05:35:20.513Z,101276.00
2018-12-06T05:37:48.140Z,101289.95
2018-12-06T05:40:15.828Z,101295.85
2018-12-06T05:42:43.479Z,101291.78
2018-12-06T05:45:11.352Z,101291.60
2018-12-06T05:47:39.001Z,101295.28
2018-12-06T05:50:06.997Z,101300.52
2018-12-06T05:52:35.599Z,101289.41
2018-12-06T05:55:04.383Z,101291.34
2018-12-06T05:57:32.121Z,101286.52
2018-12-06T06:00:00.085Z,101293.17
2018-12-06T06:02:27.887Z,101301.52
2018-12-06T06:04:55.668Z,101294.35
2018-12-06T06:07:23.415Z,101301.52
2018-12-06T06:09:51.228Z,101304.50
2018-12-06T06:12:19.144Z,101297.67
2018-12-06T06:14:46.744Z,101291.06
2018-12-06T06:17:14.773Z,101295.31
2018-12-06T06:19:42.496Z,101289.36
2018-12-06T06:22:10.200Z,101296.74
2018-12-06T06:24:37.828Z,101292.82
2018-12-06T06:27:05.764Z,101290.11
2018-12-06T06:29:34.333Z,101277.11
2018-12-06T06:32:02.141Z,101275.67
2018-12-06T06:34:30.327Z,101272.73
2018-12-06T06:36:58.012Z,101268.01
2018-12-06T06:39:25.675Z,101262.72
2018-12-06T06:41:53.372Z,101271.68
2018-12-06T06:44:21.007Z,101255.81
2018-12-06T06:46:48.864Z,101272.45
2018-12-06T06:49:16.545Z,101273.86
2018-12-06T06:51:44.258Z,101280.11
2018-12-06T06:54:12.057Z,101278.53
2018-12-06T06:56:40.517Z,101275.29
2018-12-06T06:59:08.403Z,101268.08
2018-12-06T07:01:36.067Z,101273.86
2018-12-06T07:04:05.246Z,101279.80
2018-12-06T07:06:33.231Z,101275.81
2018-12-06T07:09:00.865Z,101268.55
2018-12-06T07:11:28.766Z,101264.13
2018-12-06T07:13:56.847Z,101267.03
2018-12-06T07:16:24.499Z,101260.70
2018-12-06T07:18:52.372Z,101257.80
2018-12-06T07:21:19.999Z,101218.79
2018-12-06T07:23:48.255Z,101250.80
2018-12-06T07:26:16.152Z,101248.04
2018-12-06T07:28:44.352Z,101251.63
2018-12-06T07:31:12.526Z,101241.72
2018-12-06T07:33:40.396Z,101234.70
2018-12-06T07:36:08.669Z,101239.08
2018-12-06T07:38:36.248Z,101232.04
2018-12-06T07:41:03.975Z,101235.58
2018-12-06T07:43:32.677Z,101239.20
2018-12-06T07:46:05.984Z,101231.21
2018-12-06T07:48:33.671Z,101219.64
2018-12-06T07:51:01.385Z,101215.53
2018-12-06T07:53:29.047Z,101212.63
2018-12-06T07:55:56.685Z,101207.44
2018-12-06T07:58:24.523Z,101189.27
2018-12-06T08:00:52.463Z,101174.88
2018-12-06T08:03:20.056Z,101155.02
2018-12-06T08:05:48.380Z,101142.31
2018-12-06T08:08:16.155Z,101140.39
2018-12-06T08:10:44.524Z,101162.31
2018-12-06T08:13:13.642Z,101170.75
2018-12-06T08:15:41.456Z,101182.25
2018-12-06T08:18:09.977Z,101186.88
2018-12-06T08:20:38.291Z,101191.33
2018-12-06T08:23:06.116Z,101198.09
2018-12-06T08:25:34.803Z,101194.06
2018-12-06T08:28:02.725Z,101197.41
2018-12-06T08:30:30.640Z,101198.77
2018-12-06T08:32:58.339Z,101206.03
2018-12-06T08:35:26.055Z,101204.94
2018-12-06T08:37:54.392Z,101209.08
2018-12-06T08:40:23.585Z,101212.66
2018-12-06T08:42:51.548Z,101218.16
2018-12-06T08:45:19.142Z,101224.22
2018-12-06T08:47:46.787Z,101224.63
2018-12-06T08:50:14.489Z,101225.25
2018-12-06T08:52:43.255Z,101236.16
2018-12-06T08:55:11.149Z,101243.64
2018-12-06T08:57:39.138Z,101247.45
2018-12-06T09:00:10.028Z,101259.19
2018-12-06T09:02:37.749Z,101261.70
2018-12-06T09:05:06.699Z,101263.69
2018-12-06T09:07:35.127Z,101264.05
2018-12-06T09:10:04.271Z,101264.91
2018-12-06T09:12:32.385Z,101265.98
2018-12-06T09:15:00.280Z,101264.09
2018-12-06T09:17:27.987Z,101267.33
2018-12-06T09:19:56.580Z,101274.32
2018-12-06T09:22:24.510Z,101271.80
2018-12-06T09:24:52.647Z,101272.79
2018-12-06T09:27:21.074Z,101270.59
2018-12-06T09:29:48.913Z,101273.95
2018-12-06T09:32:16.607Z,101278.39
2018-12-06T09:34:44.218Z,101282.13
2018-12-06T09:37:12.053Z,101281.39
2018-12-06T09:39:40.047Z,101279.16
2018-12-06T09:42:07.895Z,101274.60
2018-12-06T09:44:35.646Z,101271.59
2018-12-06T09:47:03.566Z,101280.61
2018-12-06T09:49:32.830Z,101269.25
2018-12-06T09:52:01.590Z,101270.52
2018-12-06T09:54:29.459Z,101276.52
2018-12-06T09:56:58.552Z,101262.92
2018-12-06T09:59:27.375Z,101260.80
2018-12-06T10:01:55.079Z,101259.28
2018-12-06T10:04:23.300Z,101259.52
2018-12-06T10:06:51.060Z,101261.17
2018-12-06T10:09:18.826Z,101266.53
2018-12-06T10:11:46.475Z,101261.26
2018-12-06T10:14:14.120Z,101263.28
2018-12-06T10:16:41.965Z,101255.44
2018-12-06T10:19:10.096Z,101254.13
2018-12-06T10:21:37.955Z,101243.25
2018-12-06T10:24:06.043Z,101244.31
2018-12-06T10:26:33.743Z,101241.89
2018-12-06T10:29:02.046Z,101235.97
2018-12-06T10:31:29.652Z,101234.45
2018-12-06T10:33:57.564Z,101237.06
2018-12-06T10:36:25.349Z,101233.02
2018-12-06T10:38:53.684Z,101223.84
2018-12-06T10:41:21.449Z,101218.93
2018-12-06T10:43:49.252Z,101214.50
2018-12-06T10:46:18.904Z,101205.40
2018-12-06T10:48:47.904Z,101206.02
2018-12-06T10:54:47.604Z,101196.05
2018-12-06T10:57:15.331Z,101185.67
2018-12-06T10:59:43.108Z,101182.49
2018-12-06T11:02:16.515Z,101176.78
2018-12-06T11:04:44.609Z,101167.64
2018-12-06T11:07:12.732Z,101160.26
2018-12-06T11:09:40.499Z,101154.77
2018-12-06T11:12:08.902Z,101160.58
2018-12-06T11:14:37.383Z,101162.19
2018-12-06T11:17:05.801Z,101157.44
2018-12-06T11:19:33.862Z,101150.73
2018-12-06T11:22:01.908Z,101146.34
2018-12-06T11:24:29.721Z,101137.41
2018-12-06T11:26:57.702Z,101131.42
2018-12-06T11:29:25.818Z,101130.72
2018-12-06T11:31:53.540Z,101134.52
2018-12-06T11:34:21.441Z,101143.22
2018-12-06T11:36:49.114Z,101142.64
2018-12-06T11:39:17.373Z,101138.66
2018-12-06T11:41:45.264Z,101150.61
2018-12-06T11:44:13.114Z,101157.14
2018-12-06T11:46:40.863Z,101148.97
2018-12-06T11:49:08.744Z,101147.70
2018-12-06T11:51:36.377Z,101146.98
2018-12-06T11:54:04.514Z,101141.30
2018-12-06T11:56:32.214Z,101134.97
2018-12-06T11:58:59.949Z,101138.76
2018-12-06T12:01:27.869Z,101134.53
2018-12-06T12:03:56.233Z,101132.34
2018-12-06T12:06:24.733Z,101136.23
2018-12-06T12:08:52.551Z,101127.67
2018-12-06T12:11:20.646Z,101130.73
2018-12-06T12:13:48.495Z,101133.27
2018-12-06T12:16:16.299Z,101130.88
2018-12-06T12:18:44.128Z,101128.48
2018-12-06T12:21:11.899Z,101131.80
2018-12-06T12:23:39.914Z,101134.44
2018-12-06T12:26:08.547Z,101140.52
2018-12-06T12:28:36.815Z,101132.30
2018-12-06T12:31:04.696Z,101136.14
2018-12-06T12:33:32.597Z,101136.24
2018-12-06T12:36:00.383Z,101123.73
2018-12-06T12:38:28.636Z,101138.19
2018-12-06T12:40:56.357Z,101143.88
2018-12-06T12:43:24.368Z,101144.95
2018-12-06T12:45:52.172Z,101148.81
2018-12-06T12:48:20.259Z,101147.69
2018-12-06T12:50:48.101Z,101153.77
2018-12-06T12:53:15.876Z,101157.52
2018-12-06T12:55:44.378Z,101154.79
2018-12-06T12:58:12.252Z,101154.50
2018-12-06T13:00:40.253Z,101136.23
2018-12-06T13:03:08.095Z,101123.93
2018-12-06T13:05:36.357Z,101124.80
2018-12-06T13:08:04.685Z,101126.16
2018-12-06T13:10:33.569Z,101119.83
2018-12-06T13:13:01.812Z,101117.66
2018-12-06T13:15:29.849Z,101114.19
2018-12-06T13:17:57.780Z,101107.58
2018-12-06T13:20:25.571Z,101099.98
2018-12-06T13:22:53.618Z,101112.28
2018-12-06T13:25:22.380Z,101102.42
2018-12-06T13:27:50.227Z,101084.98
2018-12-06T13:30:18.295Z,101079.25
2018-12-06T13:32:46.067Z,101082.50
2018-12-06T13:35:13.848Z,101086.10
2018-12-06T13:37:41.616Z,101094.28
2018-12-06T13:40:09.602Z,101088.29
2018-12-06T13:42:37.383Z,101097.83
2018-12-06T13:45:05.176Z,101098.95
2018-12-06T13:47:32.859Z,101084.20
2018-12-06T13:50:00.559Z,101082.02
2018-12-06T13:52:29.032Z,101076.27
2018-12-06T13:54:56.813Z,101075.69
2018-12-06T13:57:24.550Z,101077.39
2018-12-06T13:59:52.224Z,101071.64
2018-12-06T14:02:20.807Z,101060.17
2018-12-06T14:04:48.526Z,101051.45
2018-12-06T14:07:16.337Z,101045.45
2018-12-06T14:09:44.102Z,101041.86
2018-12-06T14:12:12.067Z,101041.91
2018-12-06T14:14:40.034Z,101041.95
2018-12-06T14:17:07.917Z,101037.32
2018-12-06T14:19:37.286Z,101041.13
2018-12-06T14:22:05.041Z,101054.22
2018-12-06T14:24:32.681Z,101052.48
2018-12-06T14:27:00.635Z,101053.59
2018-12-06T14:29:28.727Z,101057.23
2018-12-06T14:31:56.533Z,101061.36
2018-12-06T14:34:24.258Z,101061.03
2018-12-06T14:37:01.399Z,101059.17
2018-12-06T14:39:23.129Z,101064.00
2018-12-06T14:41:50.971Z,101061.08
2018-12-06T14:44:19.351Z,101056.70
2018-12-06T14:46:46.980Z,101070.63
2018-12-06T14:49:14.850Z,101066.31
2018-12-06T14:51:42.514Z,101064.09
2018-12-06T14:54:10.719Z,101072.27
2018-12-06T14:56:38.495Z,101065.50
2018-12-06T14:59:07.016Z,101078.02
2018-12-06T15:01:34.928Z,101088.37
2018-12-06T15:04:02.694Z,101088.72
2018-12-06T15:06:37.339Z,101079.45
2018-12-06T15:09:00.533Z,101090.16
2018-12-06T15:11:28.196Z,101082.47
2018-12-06T15:13:56.077Z,101082.76
2018-12-06T15:16:23.845Z,101092.77
2018-12-06T15:18:52.024Z,101088.34
2018-12-06T15:21:20.215Z,101095.16
2018-12-06T15:23:47.883Z,101085.11
2018-12-06T15:26:15.612Z,101088.95
2018-12-06T15:28:43.578Z,101102.02
2018-12-06T15:31:11.434Z,101106.34
2018-12-06T15:33:39.449Z,101109.91
2018-12-06T15:36:07.730Z,101125.14
2018-12-06T15:38:35.449Z,101128.94
2018-12-06T15:41:03.352Z,101136.62
2018-12-06T15:43:32.344Z,101117.73
2018-12-06T15:46:00.072Z,101108.53
2018-12-06T15:48:27.911Z,101110.02
2018-12-06T15:50:55.838Z,101099.64
2018-12-06T15:53:24.629Z,101104.02
2018-12-06T15:55:52.428Z,101097.64
2018-12-06T15:58:20.251Z,101100.91
2018-12-06T16:00:48.193Z,101105.23
2018-12-06T16:03:15.843Z,101120.75
2018-12-06T16:05:43.964Z,101117.73
2018-12-06T16:08:13.219Z,101113.12
2018-12-06T16:10:41.537Z,101115.55
2018-12-06T16:13:09.425Z,101105.52
2018-12-06T16:15:37.396Z,101097.36
2018-12-06T16:18:05.301Z,101094.96
2018-12-06T16:20:33.605Z,101094.63
2018-12-06T16:23:04.310Z,101084.34
2018-12-06T16:25:32.281Z,101065.52
2018-12-06T16:28:00.495Z,101079.92
2018-12-06T16:30:28.264Z,101082.02
2018-12-06T16:32:56.838Z,101078.22
2018-12-06T16:35:25.109Z,101076.61
2018-12-06T16:37:52.768Z,101070.20
2018-12-06T16:40:20.544Z,101060.61
2018-12-06T16:42:48.418Z,101058.47
2018-12-06T16:45:16.877Z,101059.91
2018-12-06T16:47:44.851Z,101066.73
2018-12-06T16:50:13.020Z,101062.11
2018-12-06T16:52:40.944Z,101059.38
2018-12-06T16:55:09.678Z,101062.89
2018-12-06T16:57:37.741Z,101053.43
2018-12-06T17:00:09.568Z,101046.63
2018-12-06T17:02:37.588Z,101045.55
2018-12-06T17:05:05.241Z,101047.11
2018-12-06T17:07:32.990Z,101060.83
2018-12-06T17:10:00.960Z,101066.82
2018-12-06T17:12:29.361Z,101067.39
2018-12-06T17:14:57.108Z,101057.31
2018-12-06T17:17:25.210Z,101059.80
2018-12-06T17:19:53.675Z,101062.27
2018-12-06T17:22:21.845Z,101065.03
2018-12-06T17:24:49.666Z,101041.82
2018-12-06T17:27:17.619Z,101040.17
2018-12-06T17:29:45.724Z,101051.94
2018-12-06T17:32:13.792Z,101062.62
2018-12-06T17:34:41.584Z,101057.72
2018-12-06T17:37:09.364Z,101055.28
2018-12-06T17:39:39.647Z,101061.27
2018-12-06T17:42:07.615Z,101059.69
2018-12-06T17:44:35.600Z,101063.21
2018-12-06T17:47:04.593Z,101067.69
2018-12-06T17:49:32.587Z,101076.12
2018-12-06T17:52:00.571Z,101075.88
2018-12-06T17:54:28.852Z,101083.23
2018-12-06T17:56:57.017Z,101065.22
2018-12-06T17:59:24.900Z,101070.09
2018-12-06T18:01:53.042Z,101065.53
2018-12-06T18:04:21.030Z,101066.39
2018-12-06T18:06:48.872Z,101066.61
2018-12-06T18:09:17.158Z,101059.51
2018-12-06T18:11:45.109Z,101060.39
2018-12-06T18:14:12.799Z,101061.16
2018-12-06T18:16:40.724Z,101057.44
2018-12-06T18:19:08.787Z,101055.56
2018-12-06T18:21:36.807Z,101056.64
2018-12-06T18:24:05.552Z,101052.58
2018-12-06T18:26:33.624Z,101052.58
2018-12-06T18:29:01.490Z,101056.16
2018-12-06T18:31:29.493Z,101056.98
2018-12-06T18:33:57.208Z,101046.60
2018-12-06T18:36:25.047Z,101046.09
2018-12-06T18:38:53.194Z,101042.80
2018-12-06T18:41:21.163Z,101048.02
2018-12-06T18:43:49.370Z,101051.34
2018-12-06T18:46:18.019Z,101048.33
2018-12-06T18:48:45.781Z,101057.36
2018-12-06T18:51:13.991Z,101055.75
2018-12-06T18:53:41.896Z,101055.48
2018-12-06T18:56:09.893Z,101051.38
2018-12-06T18:58:38.644Z,101054.70
2018-12-06T19:01:06.656Z,101054.15
2018-12-06T19:03:39.264Z,101040.19
2018-12-06T19:06:11.809Z,101041.58
2018-12-06T19:08:39.678Z,101036.66
2018-12-06T19:11:09.114Z,101032.26
2018-12-06T19:13:37.014Z,101035.00
2018-12-06T19:16:04.826Z,101036.94
2018-12-06T19:18:32.968Z,101022.44
2018-12-06T19:21:01.047Z,101018.06
2018-12-06T19:23:29.094Z,101013.70
2018-12-06T19:25:57.054Z,101018.62
2018-12-06T19:28:25.396Z,101015.91
2018-12-06T19:30:53.446Z,101023.58
2018-12-06T19:33:22.447Z,101016.73
2018-12-06T19:35:50.415Z,101029.86
2018-12-06T19:38:18.648Z,101029.30
2018-12-06T19:40:46.847Z,101029.03
2018-12-06T19:43:14.681Z,101020.86
2018-12-06T19:45:43.289Z,101018.41
2018-12-06T19:48:11.686Z,101018.95
2018-12-06T19:50:39.588Z,101017.31
2018-12-06T19:53:07.571Z,101018.14
2018-12-06T19:55:35.938Z,101021.16
2018-12-06T19:58:03.762Z,101011.60
2018-12-06T20:00:31.600Z,101006.66
2018-12-06T20:02:59.448Z,101002.29
2018-12-06T20:05:27.493Z,100990.53
2018-12-06T20:07:57.412Z,100986.44
2018-12-06T20:10:25.646Z,100983.98
2018-12-06T20:12:53.416Z,100981.53
2018-12-06T20:15:21.331Z,100985.08
2018-12-06T20:17:51.498Z,100980.72
2018-12-06T20:20:23.474Z,100977.17
2018-12-06T20:22:50.140Z,100967.61
2018-12-06T20:25:17.983Z,100974.48
2018-12-06T20:27:45.964Z,100969.56
2018-12-06T20:30:13.878Z,100980.47
2018-12-06T20:32:42.028Z,100979.94
2018-12-06T20:35:10.103Z,100974.75
2018-12-06T20:37:39.114Z,100972.80
2018-12-06T20:40:06.885Z,100974.18
2018-12-06T20:42:34.752Z,100970.37
2018-12-06T20:45:02.575Z,100971.47
2018-12-06T20:47:30.405Z,100976.95
2018-12-06T20:49:58.245Z,100974.20
2018-12-06T20:52:26.036Z,100977.74
2018-12-06T20:54:54.423Z,100976.67
2018-12-06T20:57:22.331Z,100977.50
2018-12-06T20:59:50.292Z,100972.30
2018-12-06T21:02:18.430Z,100973.13
2018-12-06T21:04:46.164Z,100969.29
2018-12-06T21:07:14.174Z,100969.83
2018-12-06T21:09:41.949Z,100960.55
2018-12-06T21:12:10.256Z,100963.27
2018-12-06T21:14:37.812Z,100960.81
2018-12-06T21:17:05.723Z,100960.56
2018-12-06T21:19:33.462Z,100955.34
2018-12-06T21:22:02.248Z,100957.83
2018-12-06T21:24:30.391Z,100946.88
2018-12-06T21:26:58.754Z,100938.94
2018-12-06T21:29:26.375Z,100947.97
2018-12-06T21:31:54.438Z,100936.48
2018-12-06T21:34:22.575Z,100941.95
2018-12-06T21:36:50.833Z,100940.05
2018-12-06T21:39:18.606Z,100943.06
2018-12-06T21:41:46.543Z,100940.59
2018-12-06T21:44:15.844Z,100934.30
2018-12-06T21:46:43.669Z,100941.41
2018-12-06T21:49:11.641Z,100937.05
2018-12-06T21:51:39.649Z,100936.23
2018-12-06T21:54:08.744Z,100936.78
2018-12-06T21:56:37.289Z,100940.04
2018-12-06T21:59:05.179Z,100940.04
2018-12-06T22:01:33.070Z,100928.03
2018-12-06T22:04:01.832Z,100924.73
2018-12-06T22:06:29.706Z,100916.26
2018-12-06T22:08:58.699Z,100911.35
2018-12-06T22:11:26.613Z,100909.69
2018-12-06T22:13:55.066Z,100899.59
2018-12-06T22:16:22.861Z,100908.33
2018-12-06T22:18:50.890Z,100906.14
2018-12-06T22:21:19.476Z,100912.44
2018-12-06T22:23:47.092Z,100908.31
2018-12-06T22:26:14.769Z,100908.88
2018-12-06T22:28:42.859Z,100902.59
2018-12-06T22:31:10.497Z,100895.18
2018-12-06T22:33:38.385Z,100900.36
2018-12-06T22:36:06.321Z,100907.20
2018-12-06T22:38:34.534Z,100896.02
2018-12-06T22:41:03.254Z,100889.72
2018-12-06T22:43:32.958Z,100888.33
2018-12-06T22:46:01.109Z,100882.03
2018-12-06T22:48:29.107Z,100876.31
2018-12-06T22:50:56.696Z,100871.11
2018-12-06T22:53:24.565Z,100864.27
2018-12-06T22:55:52.259Z,100864.26
2018-12-06T22:58:20.740Z,100870.80
2018-12-06T23:00:50.376Z,100870.25
2018-12-06T23:03:18.308Z,100869.41
2018-12-06T23:05:45.979Z,100869.97
2018-12-06T23:08:14.339Z,100863.66
2018-12-06T23:10:42.096Z,100864.73
2018-12-06T23:13:09.728Z,100861.73
2018-12-06T23:15:37.827Z,100856.25
2018-12-06T23:18:06.439Z,100848.59
2018-12-06T23:20:34.529Z,100838.70
2018-12-06T23:23:03.242Z,100822.83
2018-12-06T23:25:30.921Z,100824.74
2018-12-06T23:27:59.588Z,100828.03
2018-12-06T23:30:27.296Z,100828.84
2018-12-06T23:32:54.967Z,100833.49
2018-12-06T23:35:22.739Z,100838.42
2018-12-06T23:37:50.496Z,100843.02
2018-12-06T23:40:18.215Z,100838.13
2018-12-06T23:42:45.995Z,100831.53
2018-12-06T23:45:14.987Z,100843.82
2018-12-06T23:47:42.979Z,100831.41
2018-12-06T23:50:10.613Z,100833.09
2018-12-06T23:52:38.318Z,100827.92
2018-12-06T23:55:06.041Z,100829.25
2018-12-06T23:57:33.852Z,100822.95
